sensor_id;sensor_type;location;lat;lon;timestamp;P1;durP1;ratioP1;P2;durP2;ratioP2
73382;SDS011;61600;48.126;11.542;2023-02-08T00:00:05;17.58;;;6.72;;
73382;SDS011;61600;48.126;11.542;2023-02-08T00:02:32;14.30;;;4.88;;
73382;SDS011;61600;48.126;11.542;2023-02-08T00:04:57;15.23;;;5.20;;
73382;SDS011;61600;48.126;11.542;2023-02-08T00:07:26;16.20;;;5.43;;
73382;SDS011;61600;48.126;11.542;2023-02-08T00:09:52;13.57;;;4.97;;
73382;SDS011;61600;48.126;11.542;2023-02-08T00:12:18;15.52;;;5.72;;
73382;SDS011;61600;48.126;11.542;2023-02-08T00:14:43;10.90;;;4.63;;
73382;SDS011;61600;48.126;11.542;2023-02-08T00:17:09;19.08;;;5.65;;
73382;SDS011;61600;48.126;11.542;2023-02-08T00:19:35;13.13;;;5.13;;
73382;SDS011;61600;48.126;11.542;2023-02-08T00:22:00;14.68;;;5.55;;
73382;SDS011;61600;48.126;11.542;2023-02-08T00:24:26;12.98;;;5.03;;
73382;SDS011;61600;48.126;11.542;2023-02-08T00:26:53;13.40;;;5.18;;
73382;SDS011;61600;48.126;11.542;2023-02-08T00:29:19;14.43;;;5.15;;
73382;SDS011;61600;48.126;11.542;2023-02-08T00:31:44;20.38;;;6.32;;
73382;SDS011;61600;48.126;11.542;2023-02-08T00:34:10;17.40;;;5.93;;
73382;SDS011;61600;48.126;11.542;2023-02-08T00:36:36;18.80;;;6.00;;
73382;SDS011;61600;48.126;11.542;2023-02-08T00:39:02;13.00;;;5.95;;
73382;SDS011;61600;48.126;11.542;2023-02-08T00:41:28;11.65;;;5.25;;
73382;SDS011;61600;48.126;11.542;2023-02-08T00:43:53;15.90;;;5.82;;
73382;SDS011;61600;48.126;11.542;2023-02-08T00:46:19;15.52;;;6.05;;
73382;SDS011;61600;48.126;11.542;2023-02-08T00:48:45;17.33;;;5.40;;
73382;SDS011;61600;48.126;11.542;2023-02-08T00:51:13;11.95;;;5.60;;
73382;SDS011;61600;48.126;11.542;2023-02-08T00:53:40;16.17;;;5.25;;
73382;SDS011;61600;48.126;11.542;2023-02-08T00:56:09;12.23;;;5.32;;
73382;SDS011;61600;48.126;11.542;2023-02-08T00:58:36;13.82;;;5.30;;
73382;SDS011;61600;48.126;11.542;2023-02-08T01:01:02;14.73;;;6.25;;
73382;SDS011;61600;48.126;11.542;2023-02-08T01:03:39;14.15;;;5.35;;
73382;SDS011;61600;48.126;11.542;2023-02-08T01:06:09;18.25;;;5.60;;
73382;SDS011;61600;48.126;11.542;2023-02-08T01:08:39;14.38;;;5.82;;
73382;SDS011;61600;48.126;11.542;2023-02-08T01:11:10;16.65;;;6.13;;
73382;SDS011;61600;48.126;11.542;2023-02-08T01:13:37;11.43;;;5.50;;
73382;SDS011;61600;48.126;11.542;2023-02-08T01:16:07;14.65;;;5.97;;
73382;SDS011;61600;48.126;11.542;2023-02-08T01:18:33;11.63;;;4.95;;
73382;SDS011;61600;48.126;11.542;2023-02-08T01:21:05;11.98;;;5.53;;
73382;SDS011;61600;48.126;11.542;2023-02-08T01:23:34;18.58;;;6.05;;
73382;SDS011;61600;48.126;11.542;2023-02-08T01:26:01;14.07;;;5.50;;
73382;SDS011;61600;48.126;11.542;2023-02-08T01:28:27;17.15;;;5.57;;
73382;SDS011;61600;48.126;11.542;2023-02-08T01:30:52;16.00;;;5.40;;
73382;SDS011;61600;48.126;11.542;2023-02-08T01:33:18;15.20;;;5.63;;
73382;SDS011;61600;48.126;11.542;2023-02-08T01:35:44;14.65;;;5.50;;
73382;SDS011;61600;48.126;11.542;2023-02-08T01:38:10;17.63;;;6.38;;
73382;SDS011;61600;48.126;11.542;2023-02-08T01:40:35;16.17;;;6.32;;
73382;SDS011;61600;48.126;11.542;2023-02-08T01:43:01;19.25;;;6.25;;
73382;SDS011;61600;48.126;11.542;2023-02-08T01:45:30;15.45;;;5.68;;
73382;SDS011;61600;48.126;11.542;2023-02-08T01:48:12;11.85;;;5.38;;
73382;SDS011;61600;48.126;11.542;2023-02-08T01:50:48;16.95;;;5.80;;
73382;SDS011;61600;48.126;11.542;2023-02-08T01:55:46;16.27;;;5.63;;
73382;SDS011;61600;48.126;11.542;2023-02-08T01:58:15;17.17;;;6.53;;
73382;SDS011;61600;48.126;11.542;2023-02-08T02:03:09;14.32;;;6.18;;
73382;SDS011;61600;48.126;11.542;2023-02-08T02:05:44;17.70;;;6.40;;
73382;SDS011;61600;48.126;11.542;2023-02-08T02:08:18;17.60;;;5.70;;
73382;SDS011;61600;48.126;11.542;2023-02-08T02:10:44;13.90;;;5.47;;
73382;SDS011;61600;48.126;11.542;2023-02-08T02:13:15;16.33;;;5.88;;
73382;SDS011;61600;48.126;11.542;2023-02-08T02:15:44;18.73;;;5.63;;
73382;SDS011;61600;48.126;11.542;2023-02-08T02:18:11;14.85;;;5.35;;
73382;SDS011;61600;48.126;11.542;2023-02-08T02:34:33;16.35;;;5.53;;
73382;SDS011;61600;48.126;11.542;2023-02-08T02:39:53;15.60;;;6.30;;
73382;SDS011;61600;48.126;11.542;2023-02-08T02:51:26;14.98;;;5.53;;
73382;SDS011;61600;48.126;11.542;2023-02-08T02:53:58;13.88;;;5.45;;
73382;SDS011;61600;48.126;11.542;2023-02-08T02:56:31;13.57;;;5.75;;
73382;SDS011;61600;48.126;11.542;2023-02-08T02:59:05;13.35;;;4.93;;
73382;SDS011;61600;48.126;11.542;2023-02-08T03:01:33;15.35;;;6.35;;
73382;SDS011;61600;48.126;11.542;2023-02-08T03:04:10;18.38;;;6.30;;
73382;SDS011;61600;48.126;11.542;2023-02-08T03:06:58;13.63;;;6.07;;
73382;SDS011;61600;48.126;11.542;2023-02-08T03:10:15;16.45;;;5.88;;
73382;SDS011;61600;48.126;11.542;2023-02-08T03:12:53;16.00;;;6.18;;
73382;SDS011;61600;48.126;11.542;2023-02-08T03:15:32;14.85;;;6.03;;
73382;SDS011;61600;48.126;11.542;2023-02-08T03:18:27;15.25;;;6.18;;
73382;SDS011;61600;48.126;11.542;2023-02-08T03:24:21;18.00;;;5.95;;
73382;SDS011;61600;48.126;11.542;2023-02-08T03:26:51;19.58;;;5.50;;
73382;SDS011;61600;48.126;11.542;2023-02-08T03:29:38;15.20;;;5.65;;
73382;SDS011;61600;48.126;11.542;2023-02-08T03:32:38;24.30;;;6.75;;
73382;SDS011;61600;48.126;11.542;2023-02-08T03:37:47;15.98;;;5.97;;
73382;SDS011;61600;48.126;11.542;2023-02-08T03:40:20;16.55;;;6.50;;
73382;SDS011;61600;48.126;11.542;2023-02-08T03:42:49;19.52;;;6.72;;
73382;SDS011;61600;48.126;11.542;2023-02-08T03:45:22;15.30;;;6.30;;
73382;SDS011;61600;48.126;11.542;2023-02-08T03:47:52;17.30;;;6.72;;
73382;SDS011;61600;48.126;11.542;2023-02-08T03:50:21;14.50;;;5.70;;
73382;SDS011;61600;48.126;11.542;2023-02-08T03:52:49;16.52;;;6.32;;
73382;SDS011;61600;48.126;11.542;2023-02-08T03:55:17;16.38;;;6.22;;
73382;SDS011;61600;48.126;11.542;2023-02-08T03:57:49;19.83;;;6.88;;
73382;SDS011;61600;48.126;11.542;2023-02-08T04:00:19;17.85;;;6.53;;
73382;SDS011;61600;48.126;11.542;2023-02-08T04:03:00;16.08;;;6.18;;
73382;SDS011;61600;48.126;11.542;2023-02-08T04:05:32;15.45;;;6.10;;
73382;SDS011;61600;48.126;11.542;2023-02-08T04:07:59;15.63;;;6.65;;
73382;SDS011;61600;48.126;11.542;2023-02-08T04:10:24;17.13;;;6.57;;
73382;SDS011;61600;48.126;11.542;2023-02-08T04:12:50;11.15;;;5.13;;
73382;SDS011;61600;48.126;11.542;2023-02-08T04:15:16;18.13;;;6.18;;
73382;SDS011;61600;48.126;11.542;2023-02-08T04:17:42;18.13;;;6.18;;
73382;SDS011;61600;48.126;11.542;2023-02-08T04:20:08;21.42;;;6.80;;
73382;SDS011;61600;48.126;11.542;2023-02-08T04:22:34;15.55;;;6.15;;
73382;SDS011;61600;48.126;11.542;2023-02-08T04:25:00;18.15;;;6.32;;
73382;SDS011;61600;48.126;11.542;2023-02-08T04:27:26;23.25;;;6.35;;
73382;SDS011;61600;48.126;11.542;2023-02-08T04:29:51;21.35;;;7.32;;
73382;SDS011;61600;48.126;11.542;2023-02-08T04:32:17;12.82;;;6.15;;
73382;SDS011;61600;48.126;11.542;2023-02-08T04:34:43;16.35;;;6.28;;
73382;SDS011;61600;48.126;11.542;2023-02-08T04:37:08;20.40;;;6.63;;
73382;SDS011;61600;48.126;11.542;2023-02-08T04:39:35;19.40;;;6.30;;
73382;SDS011;61600;48.126;11.542;2023-02-08T04:42:01;16.35;;;6.18;;
73382;SDS011;61600;48.126;11.542;2023-02-08T04:44:26;17.85;;;7.10;;
73382;SDS011;61600;48.126;11.542;2023-02-08T04:46:52;17.73;;;7.38;;
73382;SDS011;61600;48.126;11.542;2023-02-08T04:49:18;17.80;;;6.55;;
73382;SDS011;61600;48.126;11.542;2023-02-08T04:51:44;17.80;;;7.07;;
73382;SDS011;61600;48.126;11.542;2023-02-08T04:54:09;21.88;;;6.80;;
73382;SDS011;61600;48.126;11.542;2023-02-08T04:56:35;16.05;;;6.72;;
73382;SDS011;61600;48.126;11.542;2023-02-08T04:59:01;18.45;;;7.03;;
73382;SDS011;61600;48.126;11.542;2023-02-08T05:01:27;15.10;;;6.25;;
73382;SDS011;61600;48.126;11.542;2023-02-08T05:03:53;24.88;;;7.45;;
73382;SDS011;61600;48.126;11.542;2023-02-08T05:06:19;15.90;;;6.55;;
73382;SDS011;61600;48.126;11.542;2023-02-08T05:08:45;18.02;;;7.78;;
73382;SDS011;61600;48.126;11.542;2023-02-08T05:11:11;13.93;;;6.80;;
73382;SDS011;61600;48.126;11.542;2023-02-08T05:13:37;22.38;;;7.47;;
73382;SDS011;61600;48.126;11.542;2023-02-08T05:16:03;22.65;;;7.50;;
73382;SDS011;61600;48.126;11.542;2023-02-08T05:18:28;16.63;;;6.38;;
73382;SDS011;61600;48.126;11.542;2023-02-08T05:20:55;18.23;;;7.78;;
73382;SDS011;61600;48.126;11.542;2023-02-08T05:23:22;19.45;;;6.88;;
73382;SDS011;61600;48.126;11.542;2023-02-08T05:25:47;16.98;;;7.55;;
73382;SDS011;61600;48.126;11.542;2023-02-08T05:28:13;17.75;;;6.85;;
73382;SDS011;61600;48.126;11.542;2023-02-08T05:30:40;14.98;;;6.68;;
73382;SDS011;61600;48.126;11.542;2023-02-08T05:33:06;22.30;;;7.18;;
73382;SDS011;61600;48.126;11.542;2023-02-08T05:35:31;22.27;;;8.02;;
73382;SDS011;61600;48.126;11.542;2023-02-08T05:37:57;20.92;;;7.18;;
73382;SDS011;61600;48.126;11.542;2023-02-08T05:40:23;16.52;;;6.43;;
73382;SDS011;61600;48.126;11.542;2023-02-08T05:42:49;21.60;;;7.22;;
73382;SDS011;61600;48.126;11.542;2023-02-08T05:45:15;18.08;;;6.47;;
73382;SDS011;61600;48.126;11.542;2023-02-08T05:47:40;20.88;;;6.68;;
73382;SDS011;61600;48.126;11.542;2023-02-08T05:50:07;14.35;;;6.57;;
73382;SDS011;61600;48.126;11.542;2023-02-08T05:52:33;20.85;;;7.70;;
73382;SDS011;61600;48.126;11.542;2023-02-08T05:54:59;21.88;;;7.45;;
73382;SDS011;61600;48.126;11.542;2023-02-08T05:57:25;26.88;;;7.72;;
73382;SDS011;61600;48.126;11.542;2023-02-08T05:59:58;21.40;;;7.43;;
73382;SDS011;61600;48.126;11.542;2023-02-08T06:02:24;16.52;;;6.65;;
73382;SDS011;61600;48.126;11.542;2023-02-08T06:04:49;22.52;;;7.88;;
73382;SDS011;61600;48.126;11.542;2023-02-08T06:07:15;18.08;;;6.97;;
73382;SDS011;61600;48.126;11.542;2023-02-08T06:09:44;16.73;;;7.20;;
73382;SDS011;61600;48.126;11.542;2023-02-08T06:12:10;20.35;;;8.02;;
73382;SDS011;61600;48.126;11.542;2023-02-08T06:14:36;20.17;;;7.30;;
73382;SDS011;61600;48.126;11.542;2023-02-08T06:17:01;23.00;;;7.97;;
73382;SDS011;61600;48.126;11.542;2023-02-08T06:19:30;20.30;;;7.50;;
73382;SDS011;61600;48.126;11.542;2023-02-08T06:21:56;22.00;;;8.57;;
73382;SDS011;61600;48.126;11.542;2023-02-08T06:24:22;23.55;;;8.82;;
73382;SDS011;61600;48.126;11.542;2023-02-08T06:26:50;21.63;;;8.00;;
73382;SDS011;61600;48.126;11.542;2023-02-08T06:29:16;22.23;;;7.50;;
73382;SDS011;61600;48.126;11.542;2023-02-08T06:31:41;22.70;;;6.40;;
73382;SDS011;61600;48.126;11.542;2023-02-08T06:34:10;19.92;;;7.35;;
73382;SDS011;61600;48.126;11.542;2023-02-08T06:36:36;20.38;;;7.05;;
73382;SDS011;61600;48.126;11.542;2023-02-08T06:39:02;21.38;;;7.78;;
73382;SDS011;61600;48.126;11.542;2023-02-08T06:41:30;20.13;;;7.45;;
73382;SDS011;61600;48.126;11.542;2023-02-08T06:43:56;21.63;;;8.10;;
73382;SDS011;61600;48.126;11.542;2023-02-08T06:46:25;20.02;;;7.68;;
73382;SDS011;61600;48.126;11.542;2023-02-08T06:48:51;16.70;;;7.07;;
73382;SDS011;61600;48.126;11.542;2023-02-08T06:51:16;18.40;;;8.10;;
73382;SDS011;61600;48.126;11.542;2023-02-08T06:53:42;13.57;;;7.45;;
73382;SDS011;61600;48.126;11.542;2023-02-08T06:56:08;20.35;;;7.93;;
73382;SDS011;61600;48.126;11.542;2023-02-08T06:58:34;20.85;;;7.68;;
73382;SDS011;61600;48.126;11.542;2023-02-08T07:01:00;18.38;;;7.35;;
73382;SDS011;61600;48.126;11.542;2023-02-08T07:03:25;21.58;;;7.85;;
73382;SDS011;61600;48.126;11.542;2023-02-08T07:05:51;21.73;;;7.47;;
73382;SDS011;61600;48.126;11.542;2023-02-08T07:08:17;23.13;;;9.18;;
73382;SDS011;61600;48.126;11.542;2023-02-08T07:10:43;22.95;;;7.70;;
73382;SDS011;61600;48.126;11.542;2023-02-08T07:13:09;21.02;;;7.38;;
73382;SDS011;61600;48.126;11.542;2023-02-08T07:15:35;23.27;;;8.05;;
73382;SDS011;61600;48.126;11.542;2023-02-08T07:18:00;23.02;;;8.50;;
73382;SDS011;61600;48.126;11.542;2023-02-08T07:20:26;20.50;;;7.25;;
73382;SDS011;61600;48.126;11.542;2023-02-08T07:22:52;22.63;;;8.65;;
73382;SDS011;61600;48.126;11.542;2023-02-08T07:25:18;24.15;;;8.05;;
73382;SDS011;61600;48.126;11.542;2023-02-08T07:27:44;20.15;;;7.72;;
73382;SDS011;61600;48.126;11.542;2023-02-08T07:30:10;22.50;;;8.98;;
73382;SDS011;61600;48.126;11.542;2023-02-08T07:32:35;22.55;;;7.55;;
73382;SDS011;61600;48.126;11.542;2023-02-08T07:35:01;22.73;;;7.75;;
73382;SDS011;61600;48.126;11.542;2023-02-08T07:37:35;20.55;;;8.10;;
73382;SDS011;61600;48.126;11.542;2023-02-08T07:40:00;23.88;;;8.93;;
73382;SDS011;61600;48.126;11.542;2023-02-08T07:42:26;24.35;;;9.20;;
73382;SDS011;61600;48.126;11.542;2023-02-08T07:44:52;21.85;;;8.13;;
73382;SDS011;61600;48.126;11.542;2023-02-08T07:47:18;20.25;;;8.50;;
73382;SDS011;61600;48.126;11.542;2023-02-08T07:49:43;18.13;;;7.75;;
73382;SDS011;61600;48.126;11.542;2023-02-08T07:52:09;20.50;;;7.95;;
73382;SDS011;61600;48.126;11.542;2023-02-08T07:54:35;25.58;;;8.82;;
73382;SDS011;61600;48.126;11.542;2023-02-08T07:57:01;26.38;;;7.88;;
73382;SDS011;61600;48.126;11.542;2023-02-08T07:59:27;22.50;;;9.05;;
73382;SDS011;61600;48.126;11.542;2023-02-08T08:01:52;20.02;;;7.32;;
73382;SDS011;61600;48.126;11.542;2023-02-08T08:04:18;20.77;;;8.15;;
73382;SDS011;61600;48.126;11.542;2023-02-08T08:06:46;18.08;;;7.22;;
73382;SDS011;61600;48.126;11.542;2023-02-08T08:09:14;20.48;;;7.75;;
73382;SDS011;61600;48.126;11.542;2023-02-08T08:11:39;21.45;;;8.10;;
73382;SDS011;61600;48.126;11.542;2023-02-08T08:14:05;22.45;;;8.65;;
73382;SDS011;61600;48.126;11.542;2023-02-08T08:16:31;27.92;;;8.55;;
73382;SDS011;61600;48.126;11.542;2023-02-08T08:18:57;21.67;;;7.63;;
73382;SDS011;61600;48.126;11.542;2023-02-08T08:21:22;20.35;;;7.93;;
73382;SDS011;61600;48.126;11.542;2023-02-08T08:23:48;21.52;;;7.75;;
73382;SDS011;61600;48.126;11.542;2023-02-08T08:26:15;20.63;;;8.18;;
73382;SDS011;61600;48.126;11.542;2023-02-08T08:28:42;16.83;;;7.72;;
73382;SDS011;61600;48.126;11.542;2023-02-08T08:31:10;20.08;;;8.32;;
73382;SDS011;61600;48.126;11.542;2023-02-08T08:33:38;20.52;;;8.18;;
73382;SDS011;61600;48.126;11.542;2023-02-08T08:36:04;21.30;;;8.77;;
73382;SDS011;61600;48.126;11.542;2023-02-08T08:38:30;23.50;;;8.57;;
73382;SDS011;61600;48.126;11.542;2023-02-08T08:40:55;19.13;;;7.50;;
73382;SDS011;61600;48.126;11.542;2023-02-08T08:43:21;19.77;;;8.35;;
73382;SDS011;61600;48.126;11.542;2023-02-08T08:45:47;23.00;;;7.43;;
73382;SDS011;61600;48.126;11.542;2023-02-08T08:48:12;20.05;;;8.20;;
73382;SDS011;61600;48.126;11.542;2023-02-08T08:50:38;17.63;;;7.28;;
73382;SDS011;61600;48.126;11.542;2023-02-08T08:53:04;22.05;;;8.23;;
73382;SDS011;61600;48.126;11.542;2023-02-08T08:55:30;24.33;;;7.47;;
73382;SDS011;61600;48.126;11.542;2023-02-08T08:57:56;19.92;;;8.60;;
73382;SDS011;61600;48.126;11.542;2023-02-08T09:00:22;19.92;;;8.30;;
73382;SDS011;61600;48.126;11.542;2023-02-08T09:02:48;18.98;;;7.05;;
73382;SDS011;61600;48.126;11.542;2023-02-08T09:05:13;18.80;;;7.13;;
73382;SDS011;61600;48.126;11.542;2023-02-08T09:07:39;25.38;;;7.57;;
73382;SDS011;61600;48.126;11.542;2023-02-08T09:10:05;24.63;;;7.72;;
73382;SDS011;61600;48.126;11.542;2023-02-08T09:12:30;19.20;;;7.18;;
73382;SDS011;61600;48.126;11.542;2023-02-08T09:14:56;22.25;;;8.20;;
73382;SDS011;61600;48.126;11.542;2023-02-08T09:17:22;19.73;;;7.50;;
73382;SDS011;61600;48.126;11.542;2023-02-08T09:19:48;17.80;;;7.35;;
73382;SDS011;61600;48.126;11.542;2023-02-08T09:22:14;16.77;;;7.72;;
73382;SDS011;61600;48.126;11.542;2023-02-08T09:24:40;19.75;;;7.60;;
73382;SDS011;61600;48.126;11.542;2023-02-08T09:27:06;20.63;;;7.25;;
73382;SDS011;61600;48.126;11.542;2023-02-08T09:29:32;23.13;;;7.03;;
73382;SDS011;61600;48.126;11.542;2023-02-08T09:31:58;18.15;;;7.57;;
73382;SDS011;61600;48.126;11.542;2023-02-08T09:34:24;24.33;;;8.15;;
73382;SDS011;61600;48.126;11.542;2023-02-08T09:36:52;22.40;;;7.97;;
73382;SDS011;61600;48.126;11.542;2023-02-08T09:39:22;21.75;;;7.88;;
73382;SDS011;61600;48.126;11.542;2023-02-08T09:42:01;21.40;;;8.30;;
73382;SDS011;61600;48.126;11.542;2023-02-08T09:50:51;23.27;;;9.63;;
73382;SDS011;61600;48.126;11.542;2023-02-08T09:53:23;21.48;;;7.50;;
73382;SDS011;61600;48.126;11.542;2023-02-08T09:55:59;23.33;;;7.97;;
73382;SDS011;61600;48.126;11.542;2023-02-08T09:58:46;19.00;;;7.82;;
73382;SDS011;61600;48.126;11.542;2023-02-08T10:01:25;22.92;;;8.48;;
73382;SDS011;61600;48.126;11.542;2023-02-08T10:04:02;24.73;;;8.52;;
73382;SDS011;61600;48.126;11.542;2023-02-08T10:06:33;22.92;;;8.15;;
73382;SDS011;61600;48.126;11.542;2023-02-08T10:09:00;17.25;;;7.70;;
73382;SDS011;61600;48.126;11.542;2023-02-08T10:14:17;24.30;;;8.27;;
73382;SDS011;61600;48.126;11.542;2023-02-08T10:33:51;18.00;;;7.65;;
73382;SDS011;61600;48.126;11.542;2023-02-08T10:36:25;23.90;;;8.13;;
73382;SDS011;61600;48.126;11.542;2023-02-08T10:38:56;20.70;;;8.55;;
73382;SDS011;61600;48.126;11.542;2023-02-08T10:41:26;20.27;;;8.77;;
73382;SDS011;61600;48.126;11.542;2023-02-08T10:49:26;19.77;;;7.38;;
73382;SDS011;61600;48.126;11.542;2023-02-08T10:52:05;20.50;;;8.10;;
73382;SDS011;61600;48.126;11.542;2023-02-08T10:54:32;22.13;;;8.73;;
73382;SDS011;61600;48.126;11.542;2023-02-08T10:57:00;23.77;;;9.23;;
73382;SDS011;61600;48.126;11.542;2023-02-08T10:59:47;23.92;;;8.30;;
73382;SDS011;61600;48.126;11.542;2023-02-08T11:02:42;17.98;;;7.75;;
73382;SDS011;61600;48.126;11.542;2023-02-08T11:05:09;24.45;;;9.27;;
73382;SDS011;61600;48.126;11.542;2023-02-08T11:07:37;17.98;;;7.85;;
73382;SDS011;61600;48.126;11.542;2023-02-08T11:10:37;24.08;;;7.88;;
73382;SDS011;61600;48.126;11.542;2023-02-08T11:13:14;20.15;;;8.35;;
73382;SDS011;61600;48.126;11.542;2023-02-08T11:18:29;24.52;;;8.90;;
73382;SDS011;61600;48.126;11.542;2023-02-08T11:21:20;26.20;;;10.38;;
73382;SDS011;61600;48.126;11.542;2023-02-08T11:23:54;23.58;;;9.60;;
73382;SDS011;61600;48.126;11.542;2023-02-08T11:26:36;21.60;;;9.15;;
73382;SDS011;61600;48.126;11.542;2023-02-08T11:29:16;23.50;;;8.15;;
73382;SDS011;61600;48.126;11.542;2023-02-08T11:34:26;18.60;;;8.18;;
73382;SDS011;61600;48.126;11.542;2023-02-08T11:37:24;20.13;;;7.63;;
73382;SDS011;61600;48.126;11.542;2023-02-08T11:39:53;17.67;;;7.20;;
73382;SDS011;61600;48.126;11.542;2023-02-08T11:44:51;18.42;;;8.30;;
73382;SDS011;61600;48.126;11.542;2023-02-08T11:47:22;19.63;;;8.38;;
73382;SDS011;61600;48.126;11.542;2023-02-08T11:50:00;18.13;;;7.43;;
73382;SDS011;61600;48.126;11.542;2023-02-08T11:52:29;21.40;;;8.52;;
73382;SDS011;61600;48.126;11.542;2023-02-08T12:00:20;25.52;;;9.70;;
73382;SDS011;61600;48.126;11.542;2023-02-08T12:02:48;25.08;;;10.13;;
73382;SDS011;61600;48.126;11.542;2023-02-08T12:05:18;30.75;;;10.48;;
73382;SDS011;61600;48.126;11.542;2023-02-08T12:10:52;22.85;;;9.85;;
73382;SDS011;61600;48.126;11.542;2023-02-08T12:19:41;27.15;;;11.27;;
73382;SDS011;61600;48.126;11.542;2023-02-08T12:22:39;30.33;;;9.75;;
73382;SDS011;61600;48.126;11.542;2023-02-08T12:41:29;24.10;;;12.10;;
73382;SDS011;61600;48.126;11.542;2023-02-08T12:49:59;23.27;;;10.25;;
73382;SDS011;61600;48.126;11.542;2023-02-08T12:52:47;22.40;;;10.23;;
73382;SDS011;61600;48.126;11.542;2023-02-08T12:55:33;24.35;;;10.40;;
73382;SDS011;61600;48.126;11.542;2023-02-08T13:00:59;24.58;;;11.27;;
73382;SDS011;61600;48.126;11.542;2023-02-08T13:03:33;24.33;;;10.65;;
73382;SDS011;61600;48.126;11.542;2023-02-08T13:06:11;24.70;;;10.00;;
73382;SDS011;61600;48.126;11.542;2023-02-08T13:09:25;23.70;;;11.00;;
73382;SDS011;61600;48.126;11.542;2023-02-08T13:11:43;21.70;;;9.75;;
73382;SDS011;61600;48.126;11.542;2023-02-08T13:14:31;21.88;;;10.05;;
73382;SDS011;61600;48.126;11.542;2023-02-08T13:17:08;26.42;;;10.38;;
73382;SDS011;61600;48.126;11.542;2023-02-08T13:19:48;24.05;;;9.73;;
73382;SDS011;61600;48.126;11.542;2023-02-08T13:22:19;24.88;;;10.57;;
73382;SDS011;61600;48.126;11.542;2023-02-08T13:24:46;26.10;;;9.68;;
73382;SDS011;61600;48.126;11.542;2023-02-08T13:27:18;24.23;;;10.30;;
73382;SDS011;61600;48.126;11.542;2023-02-08T13:29:47;31.83;;;11.13;;
73382;SDS011;61600;48.126;11.542;2023-02-08T13:32:26;23.60;;;10.10;;
73382;SDS011;61600;48.126;11.542;2023-02-08T13:34:56;20.95;;;9.68;;
73382;SDS011;61600;48.126;11.542;2023-02-08T13:37:45;24.35;;;10.45;;
73382;SDS011;61600;48.126;11.542;2023-02-08T13:40:23;28.08;;;10.10;;
73382;SDS011;61600;48.126;11.542;2023-02-08T13:48:03;23.63;;;8.77;;
73382;SDS011;61600;48.126;11.542;2023-02-08T13:52:59;24.83;;;9.15;;
73382;SDS011;61600;48.126;11.542;2023-02-08T13:57:55;23.25;;;9.15;;
73382;SDS011;61600;48.126;11.542;2023-02-08T14:00:25;22.30;;;8.93;;
73382;SDS011;61600;48.126;11.542;2023-02-08T14:03:01;18.60;;;8.52;;
73382;SDS011;61600;48.126;11.542;2023-02-08T14:08:03;20.98;;;9.15;;
73382;SDS011;61600;48.126;11.542;2023-02-08T14:10:39;22.50;;;9.40;;
73382;SDS011;61600;48.126;11.542;2023-02-08T14:13:21;22.17;;;9.20;;
73382;SDS011;61600;48.126;11.542;2023-02-08T14:15:51;17.92;;;8.93;;
73382;SDS011;61600;48.126;11.542;2023-02-08T14:18:56;19.05;;;7.90;;
73382;SDS011;61600;48.126;11.542;2023-02-08T14:23:57;18.65;;;8.82;;
73382;SDS011;61600;48.126;11.542;2023-02-08T14:26:26;19.08;;;9.02;;
73382;SDS011;61600;48.126;11.542;2023-02-08T14:28:53;18.95;;;8.95;;
73382;SDS011;61600;48.126;11.542;2023-02-08T14:31:22;21.77;;;9.65;;
73382;SDS011;61600;48.126;11.542;2023-02-08T14:34:01;25.23;;;9.50;;
73382;SDS011;61600;48.126;11.542;2023-02-08T14:36:28;19.88;;;8.63;;
73382;SDS011;61600;48.126;11.542;2023-02-08T14:41:56;17.80;;;8.25;;
73382;SDS011;61600;48.126;11.542;2023-02-08T14:47:11;19.63;;;8.48;;
73382;SDS011;61600;48.126;11.542;2023-02-08T14:55:51;16.60;;;7.53;;
73382;SDS011;61600;48.126;11.542;2023-02-08T14:58:25;18.60;;;8.18;;
73382;SDS011;61600;48.126;11.542;2023-02-08T15:00:54;18.52;;;7.45;;
73382;SDS011;61600;48.126;11.542;2023-02-08T15:03:21;19.90;;;8.52;;
73382;SDS011;61600;48.126;11.542;2023-02-08T15:08:35;18.63;;;7.43;;
73382;SDS011;61600;48.126;11.542;2023-02-08T15:11:02;22.70;;;8.27;;
73382;SDS011;61600;48.126;11.542;2023-02-08T15:13:28;18.38;;;7.63;;
73382;SDS011;61600;48.126;11.542;2023-02-08T15:15:55;17.15;;;6.72;;
73382;SDS011;61600;48.126;11.542;2023-02-08T15:18:24;17.33;;;7.30;;
73382;SDS011;61600;48.126;11.542;2023-02-08T15:20:59;18.55;;;7.95;;
73382;SDS011;61600;48.126;11.542;2023-02-08T15:23:28;15.10;;;6.45;;
73382;SDS011;61600;48.126;11.542;2023-02-08T15:25:56;17.08;;;6.90;;
73382;SDS011;61600;48.126;11.542;2023-02-08T15:28:24;17.10;;;6.90;;
73382;SDS011;61600;48.126;11.542;2023-02-08T15:31:03;16.60;;;6.40;;
73382;SDS011;61600;48.126;11.542;2023-02-08T15:33:33;18.42;;;7.47;;
73382;SDS011;61600;48.126;11.542;2023-02-08T15:36:07;15.18;;;6.55;;
73382;SDS011;61600;48.126;11.542;2023-02-08T15:38:40;16.77;;;7.18;;
73382;SDS011;61600;48.126;11.542;2023-02-08T15:41:10;19.73;;;7.05;;
73382;SDS011;61600;48.126;11.542;2023-02-08T15:43:38;18.67;;;8.05;;
73382;SDS011;61600;48.126;11.542;2023-02-08T15:46:22;18.77;;;7.32;;
73382;SDS011;61600;48.126;11.542;2023-02-08T15:48:51;18.60;;;8.10;;
73382;SDS011;61600;48.126;11.542;2023-02-08T15:51:18;14.85;;;6.47;;
73382;SDS011;61600;48.126;11.542;2023-02-08T15:53:48;16.60;;;6.00;;
73382;SDS011;61600;48.126;11.542;2023-02-08T15:56:17;21.20;;;7.78;;
73382;SDS011;61600;48.126;11.542;2023-02-08T15:58:48;21.13;;;7.75;;
73382;SDS011;61600;48.126;11.542;2023-02-08T16:01:18;20.60;;;8.55;;
73382;SDS011;61600;48.126;11.542;2023-02-08T16:03:46;17.33;;;7.28;;
73382;SDS011;61600;48.126;11.542;2023-02-08T16:06:18;18.52;;;7.47;;
73382;SDS011;61600;48.126;11.542;2023-02-08T16:08:49;17.83;;;7.55;;
73382;SDS011;61600;48.126;11.542;2023-02-08T16:11:21;23.40;;;6.55;;
73382;SDS011;61600;48.126;11.542;2023-02-08T16:13:51;18.48;;;6.88;;
73382;SDS011;61600;48.126;11.542;2023-02-08T16:19:01;21.52;;;7.82;;
73382;SDS011;61600;48.126;11.542;2023-02-08T16:21:33;17.17;;;7.07;;
73382;SDS011;61600;48.126;11.542;2023-02-08T16:26:41;18.80;;;6.85;;
73382;SDS011;61600;48.126;11.542;2023-02-08T16:31:59;14.30;;;5.75;;
73382;SDS011;61600;48.126;11.542;2023-02-08T16:34:37;14.77;;;6.72;;
73382;SDS011;61600;48.126;11.542;2023-02-08T16:37:04;20.23;;;7.72;;
73382;SDS011;61600;48.126;11.542;2023-02-08T16:42:03;18.67;;;7.72;;
73382;SDS011;61600;48.126;11.542;2023-02-08T16:44:33;17.63;;;6.03;;
73382;SDS011;61600;48.126;11.542;2023-02-08T16:47:00;18.92;;;7.10;;
73382;SDS011;61600;48.126;11.542;2023-02-08T16:49:50;17.70;;;7.53;;
73382;SDS011;61600;48.126;11.542;2023-02-08T16:52:15;14.60;;;6.35;;
73382;SDS011;61600;48.126;11.542;2023-02-08T16:54:41;16.63;;;7.15;;
73382;SDS011;61600;48.126;11.542;2023-02-08T16:57:07;18.45;;;6.72;;
73382;SDS011;61600;48.126;11.542;2023-02-08T16:59:36;15.57;;;6.35;;
73382;SDS011;61600;48.126;11.542;2023-02-08T17:02:02;16.67;;;5.93;;
73382;SDS011;61600;48.126;11.542;2023-02-08T17:04:33;19.30;;;7.72;;
73382;SDS011;61600;48.126;11.542;2023-02-08T17:06:59;21.08;;;6.88;;
73382;SDS011;61600;48.126;11.542;2023-02-08T17:09:25;15.85;;;6.15;;
73382;SDS011;61600;48.126;11.542;2023-02-08T17:11:51;16.15;;;6.35;;